ADDS METAR Data INFO
IDs: Format: Raw Decoded Include TAF

Data at: 0223 UTC 14 Dec 2017

KOWP 140215Z AUTO 00000KT 10SM CLR 13/M05 A2991 RMK AO2 T01251048
KOWP 140155Z AUTO 30003KT 10SM CLR 13/M05 A2990 RMK AO2 T01271050
KOWP 140135Z AUTO 00000KT 10SM CLR 13/M05 A2990 RMK AO2 T01291051
KOWP 140115Z AUTO 00000KT 10SM CLR 13/M05 A2989 RMK AO2 T01311052
KOWP 140055Z AUTO 30003KT 10SM CLR 14/M05 A2988 RMK AO2 T01371055
KOWP 140035Z AUTO 00000KT 10SM CLR 14/M05 A2988 RMK AO2 T01381055
KOWP 140015Z AUTO 00000KT 10SM CLR 14/M06 A2988 RMK AO2 T01411056
KOWP 132355Z AUTO 00000KT 10SM CLR 14/M06 A2987 RMK AO2 T01421056 10206 20142
KOWP 132335Z AUTO 28003KT 10SM CLR 15/M06 A2987 RMK AO2 T01471057
KOWP 132315Z AUTO 27003KT 10SM CLR 16/M06 A2987 RMK AO2 T01551060
KOWP 132255Z AUTO 00000KT 10SM CLR 17/M06 A2986 RMK AO2 T01671062
KOWP 132235Z AUTO 30004KT 10SM CLR 18/M06 A2986 RMK AO2 T01761065
KOWP 132215Z AUTO 31006KT 10SM CLR 18/M07 A2986 RMK AO2 T01831070
KOWP 132155Z AUTO 33008G14KT 10SM CLR 19/M07 A2986 RMK AO2 T01931075
KOWP 132135Z AUTO 29007KT 10SM CLR 21/M07 A2986 RMK AO2 T02051074
KOWP 132115Z AUTO 30004KT 10SM CLR 20/M08 A2986 RMK AO2 T02011076
KOWP 132055Z AUTO 31006KT 10SM CLR 19/M07 A2986 RMK AO2 T01941071
KOWP 132035Z AUTO 33008KT 310V010 10SM CLR 20/M08 A2986 RMK AO2 T02001077
KOWP 132015Z AUTO 33011G15KT 300V360 10SM CLR 20/M08 A2986 RMK AO2 T01971078
KOWP 131955Z AUTO 29009KT 10SM CLR 20/M05 A2987 RMK AO2 T01961052
KOWP 131935Z AUTO 30005KT 10SM CLR 19/M05 A2987 RMK AO2 T01921054
KOWP 131915Z AUTO 33004G14KT 10SM CLR 19/M06 A2987 RMK AO2 T01901057
KOWP 131855Z AUTO 35005KT 10SM CLR 19/M05 A2988 RMK AO2 T01931055
KOWP 131835Z AUTO 31008KT 260V330 10SM CLR 18/M05 A2989 RMK AO2 T01811050
KOWP 131815Z AUTO 29006KT 10SM CLR 18/M04 A2990 RMK AO2 T01751045
KOWP 131755Z AUTO 31007KT 10SM CLR 17/M04 A2991 RMK AO2 T01701043 10170 20043
KOWP 131735Z AUTO 32006KT 10SM CLR 17/M04 A2992 RMK AO2 T01661044
KOWP 131715Z AUTO 30005KT 10SM CLR 15/M04 A2993 RMK AO2 T01491042
KOWP 131655Z AUTO 29007KT 10SM CLR 14/M04 A2993 RMK AO2 T01391041
KOWP 131635Z AUTO 32006KT 10SM CLR 13/M04 A2992 RMK AO2 T01261040
KOWP 131615Z AUTO 28005KT 10SM CLR 12/M04 A2992 RMK AO2 T01151040
KOWP 131555Z AUTO 25003KT 10SM CLR 11/M04 A2992 RMK AO2 T01101044
KOWP 131535Z AUTO 26007KT 10SM CLR 10/M04 A2991 RMK AO2 T00971039
KOWP 131515Z AUTO 26009KT 10SM CLR 09/M04 A2991 RMK AO2 T00911036
KOWP 131455Z AUTO 26007KT 220V300 10SM CLR 08/M03 A2991 RMK AO2 T00781031
KOWP 131435Z AUTO 25006KT 10SM CLR 07/M03 A2989 RMK AO2 T00691032
KOWP 131415Z AUTO 27007KT 10SM CLR 06/M03 A2989 RMK AO2 T00621033
KOWP 131355Z AUTO 22007KT 10SM CLR 06/M03 A2987 RMK AO2 T00561032
KOWP 131335Z AUTO 21006KT 10SM CLR 05/M03 A2987 RMK AO2 T00521032
KOWP 131315Z AUTO 22004KT 10SM CLR 05/M03 A2988 RMK AO2 T00501031
KOWP 131255Z AUTO 21004KT 10SM CLR 05/M03 A2989 RMK AO2 T00511030
KOWP 131235Z AUTO 21004KT 10SM CLR 05/M03 A2989 RMK AO2 T00511029
KOWP 131215Z AUTO 21004KT 10SM CLR 04/M03 A2989 RMK AO2 T00431027
KOWP 131155Z AUTO 21005KT 10SM CLR 05/M03 A2990 RMK AO2 T00451026 10046 20028
KOWP 131135Z AUTO 20005KT 10SM CLR 05/M03 A2990 RMK AO2 T00461026
KOWP 131115Z AUTO 19003KT 10SM CLR 04/M03 A2991 RMK AO2 T00441026
KOWP 131055Z AUTO 18005KT 10SM CLR 04/M02 A2991 RMK AO2 T00421025
KOWP 131035Z AUTO 17004KT 10SM CLR 04/M02 A2992 RMK AO2 T00381025
KOWP 131015Z AUTO 16005KT 10SM CLR 04/M02 A2993 RMK AO2 T00401021
KOWP 130955Z AUTO 16005KT 10SM CLR 04/M02 A2994 RMK AO2 T00391023
KOWP 130935Z AUTO 16005KT 10SM CLR 03/M02 A2995 RMK AO2 T00321023
KOWP 130915Z AUTO 16006KT 10SM CLR 04/M02 A2996 RMK AO2 T00371023
KOWP 130855Z AUTO 16005KT 10SM CLR 03/M02 A2997 RMK AO2 T00311024
KOWP 130835Z AUTO 14006KT 10SM CLR 03/M02 A2998 RMK AO2 T00301025
KOWP 130815Z AUTO 14006KT 10SM CLR 03/M02 A2998 RMK AO2 T00291025
KOWP 130755Z AUTO 14004KT 10SM CLR 03/M02 A2999 RMK AO2 T00301023
KOWP 130735Z AUTO 17004KT 10SM CLR 04/M03 A2999 RMK AO2 T00391026
KOWP 130715Z AUTO 19004KT 10SM CLR 03/M02 A3001 RMK AO2 T00301025
KOWP 130655Z AUTO 16003KT 10SM CLR 04/M02 A3002 RMK AO2 T00371025
KOWP 130635Z AUTO 17003KT 10SM CLR 04/M02 A3004 RMK AO2 T00431025
KOWP 130615Z AUTO 18004KT 10SM CLR 04/M02 A3005 RMK AO2 T00381024
KOWP 130555Z AUTO 18004KT 10SM CLR 04/M02 A3006 RMK AO2 T00441024 10068 20032 401040005
KOWP 130535Z AUTO 18003KT 10SM CLR 03/M02 A3007 RMK AO2 T00321025
KOWP 130515Z AUTO 00000KT 10SM CLR 05/M02 A3008 RMK AO2 T00451025
KOWP 130455Z AUTO 19005KT 10SM CLR 05/M02 A3009 RMK AO2 T00531022
KOWP 130435Z AUTO 20005KT 10SM CLR 05/M02 A3010 RMK AO2 T00511021
KOWP 130415Z AUTO 20004KT 10SM CLR 05/M02 A3011 RMK AO2 T00531021
KOWP 130355Z AUTO 19004KT 10SM CLR 05/M02 A3012 RMK AO2 T00511022
KOWP 130335Z AUTO 20004KT 10SM CLR 05/M02 A3013 RMK AO2 T00531022
KOWP 130320Z AUTO 21003KT 10SM CLR 06/M02 A3013 RMK AO2 T00551022
KOWP 130255Z AUTO 21003KT 10SM CLR 06/M02 A3014 RMK AO2 T00561022
KOWP 130235Z AUTO 20003KT 10SM CLR 06/M02 A3014 RMK AO2 T00571022
KOWP 130215Z AUTO 19004KT 10SM CLR 06/M02 A3016 RMK AO2 T00581022
KOWP 130155Z AUTO 19003KT 10SM CLR 06/M02 A3017 RMK AO2 T00601022
KOWP 130135Z AUTO 18003KT 10SM CLR 06/M02 A3018 RMK AO2 T00561024
KOWP 130115Z AUTO 00000KT 10SM CLR 06/M02 A3019 RMK AO2 T00621022
KOWP 130055Z AUTO 20003KT 10SM CLR 06/M02 A3019 RMK AO2 T00611021
KOWP 130035Z AUTO 00000KT 10SM CLR 07/M02 A3019 RMK AO2 T00651021
KOWP 130015Z AUTO 00000KT 10SM CLR 06/M02 A3020 RMK AO2 T00621021
KOWP 122355Z AUTO 00000KT 10SM CLR 07/M02 A3020 RMK AO2 T00681023 10104 20068
KOWP 122335Z AUTO 00000KT 10SM CLR 08/M02 A3021 RMK AO2 T00771025
KOWP 122315Z AUTO 00000KT 10SM CLR 08/M02 A3022 RMK AO2 T00831025
KOWP 122255Z AUTO 28004KT 10SM CLR 09/M03 A3023 RMK AO2 T00901026
KOWP 122235Z AUTO 29004KT 10SM CLR 10/M03 A3025 RMK AO2 T00951028
KOWP 122215Z AUTO 30004KT 10SM CLR 10/M03 A3026 RMK AO2 T00991030
KOWP 122155Z AUTO 30004KT 10SM CLR 10/M03 A3026 RMK AO2 T01011030
KOWP 122135Z AUTO 28003KT 10SM CLR 10/M03 A3027 RMK AO2 T01011030
KOWP 122115Z AUTO 28005KT 10SM CLR 10/M03 A3028 RMK AO2 T01011030
KOWP 122055Z AUTO 26004KT 10SM CLR 10/M03 A3029 RMK AO2 T01011034
KOWP 122035Z AUTO 26006KT 10SM CLR 10/M04 A3029 RMK AO2 T01011037
KOWP 122015Z AUTO 33007KT 290V360 10SM CLR 10/M04 A3029 RMK AO2 T01011042
KOWP 121955Z AUTO 30006KT 10SM CLR 10/M05 A3031 RMK AO2 T00981052
KOWP 121935Z AUTO 29004KT 10SM CLR 10/M06 A3032 RMK AO2 T00961065
KOWP 121915Z AUTO 29006KT 10SM CLR 09/M08 A3033 RMK AO2 T00931078
KOWP 121855Z AUTO 33007KT 290V010 10SM CLR 09/M10 A3035 RMK AO2 T00881098
KOWP 121835Z AUTO 32006KT 10SM CLR 09/M10 A3036 RMK AO2 T00901104
KOWP 121815Z AUTO 32005KT 10SM CLR 09/M10 A3037 RMK AO2 T00851101
KOWP 121755Z AUTO 31006KT 10SM CLR 08/M11 A3039 RMK AO2 T00771106 10081 20005
KOWP 121735Z AUTO 36005KT 10SM CLR 08/M10 A3039 RMK AO2 T00751099
KOWP 121715Z AUTO 33003KT 10SM CLR 07/M09 A3041 RMK AO2 T00701095
KOWP 121655Z AUTO 35006KT 10SM CLR 06/M09 A3041 RMK AO2 T00631095
KOWP 121635Z AUTO 31008KT 10SM CLR 06/M07 A3041 RMK AO2 T00601071
KOWP 121615Z AUTO 33006KT 10SM CLR 05/M07 A3041 RMK AO2 T00541066
KOWP 121555Z AUTO 35006KT 10SM CLR 05/M05 A3042 RMK AO2 T00471050
KOWP 121535Z AUTO 35007KT 310V010 10SM CLR 04/M03 A3042 RMK AO2 T00371032
KOWP 121515Z AUTO 33004KT 10SM CLR 03/M03 A3041 RMK AO2 T00311030
KOWP 121455Z AUTO 33006KT 10SM CLR 02/M03 A3041 RMK AO2 T00231030
KOWP 121435Z AUTO 00000KT 10SM CLR 02/M03 A3041 RMK AO2 T00151030